createdAt,value
2023-08-05T00:01:38.433Z,15.76
2023-08-05T00:04:05.168Z,15.74
2023-08-05T00:06:31.661Z,15.67
2023-08-05T00:08:58.455Z,15.56
2023-08-05T00:11:24.959Z,15.56
2023-08-05T00:13:51.668Z,15.57
2023-08-05T00:16:18.464Z,15.55
2023-08-05T00:18:45.185Z,15.52
2023-08-05T00:21:11.763Z,15.54
2023-08-05T00:23:38.241Z,15.58
2023-08-05T00:26:04.923Z,15.59
2023-08-05T00:28:31.530Z,15.55
2023-08-05T00:30:58.275Z,15.57
2023-08-05T00:33:24.893Z,15.61
2023-08-05T00:35:51.372Z,15.60
2023-08-05T00:38:17.878Z,15.50
2023-08-05T00:40:45.757Z,15.43
2023-08-05T00:43:12.158Z,15.39
2023-08-05T00:45:38.786Z,15.37
2023-08-05T00:48:05.743Z,15.40
2023-08-05T00:50:33.582Z,15.46
2023-08-05T00:53:00.402Z,15.47
2023-08-05T00:55:27.646Z,15.34
2023-08-05T00:57:57.966Z,15.40
2023-08-05T01:00:24.735Z,15.43
2023-08-05T01:02:51.246Z,15.43
2023-08-05T01:05:19.988Z,15.37
2023-08-05T01:07:46.671Z,15.39
2023-08-05T01:10:13.309Z,15.37
2023-08-05T01:12:42.425Z,15.40
2023-08-05T01:15:09.495Z,15.35
2023-08-05T01:17:36.193Z,15.27
2023-08-05T01:20:05.528Z,15.23
2023-08-05T01:22:41.239Z,15.20
2023-08-05T01:25:32.436Z,15.25
2023-08-05T01:28:01.480Z,15.24
2023-08-05T01:30:28.742Z,15.22
2023-08-05T01:32:56.472Z,15.25
2023-08-05T01:35:23.939Z,15.19
2023-08-05T01:37:51.279Z,15.18
2023-08-05T01:40:18.120Z,15.21
2023-08-05T01:42:44.614Z,15.26
2023-08-05T01:45:11.260Z,15.28
2023-08-05T01:47:38.316Z,15.33
2023-08-05T01:50:05.420Z,15.37
2023-08-05T01:52:31.907Z,15.29
2023-08-05T01:54:58.578Z,15.24
2023-08-05T01:57:25.060Z,15.28
2023-08-05T01:59:51.555Z,15.26
2023-08-05T02:02:18.053Z,15.11
2023-08-05T02:04:44.589Z,15.04
2023-08-05T02:07:11.302Z,15.06
2023-08-05T02:09:37.796Z,15.13
2023-08-05T02:12:04.485Z,15.18
2023-08-05T02:14:30.974Z,15.15
2023-08-05T02:16:57.550Z,15.14
2023-08-05T02:19:24.366Z,15.16
2023-08-05T02:21:50.877Z,15.15
2023-08-05T02:24:17.526Z,15.10
2023-08-05T02:26:44.001Z,15.10
2023-08-05T02:29:10.567Z,15.10
2023-08-05T02:31:37.024Z,15.10
2023-08-05T02:34:03.520Z,15.13
2023-08-05T02:36:30.186Z,15.11
2023-08-05T02:38:56.688Z,14.96
2023-08-05T02:41:23.191Z,14.84
2023-08-05T02:43:52.887Z,14.83
2023-08-05T02:46:19.456Z,14.89
2023-08-05T02:48:46.178Z,14.89
2023-08-05T02:51:12.771Z,14.91
2023-08-05T02:53:43.556Z,14.89
2023-08-05T02:56:10.093Z,14.84
2023-08-05T02:58:36.591Z,14.82
2023-08-05T03:01:10.012Z,14.81
2023-08-05T03:03:38.343Z,14.85
2023-08-05T03:06:05.046Z,14.78
2023-08-05T03:08:31.837Z,14.72
2023-08-05T03:11:02.445Z,14.77
2023-08-05T03:13:28.981Z,14.83
2023-08-05T03:15:55.908Z,14.83
2023-08-05T03:18:22.784Z,14.80
2023-08-05T03:20:49.590Z,14.77
2023-08-05T03:23:23.632Z,14.79
2023-08-05T03:25:50.214Z,14.77
2023-08-05T03:28:16.834Z,14.76
2023-08-05T03:30:43.468Z,14.77
2023-08-05T03:33:10.037Z,14.77
2023-08-05T03:35:36.518Z,14.73
2023-08-05T03:38:03.949Z,14.67
2023-08-05T03:40:30.506Z,14.61
2023-08-05T03:42:57.004Z,14.57
2023-08-05T03:45:23.436Z,14.53
2023-08-05T03:47:57.324Z,14.50
2023-08-05T03:50:30.265Z,14.56
2023-08-05T03:52:57.121Z,14.54
2023-08-05T03:55:23.687Z,14.51
2023-08-05T03:57:50.673Z,14.50
2023-08-05T04:00:18.200Z,14.50
2023-08-05T04:02:45.313Z,14.52
2023-08-05T04:05:11.916Z,14.53
2023-08-05T04:07:38.624Z,14.42
2023-08-05T04:10:07.245Z,14.47
2023-08-05T04:12:36.673Z,14.44
2023-08-05T04:15:04.528Z,14.38
2023-08-05T04:17:31.257Z,14.34
2023-08-05T04:19:58.013Z,14.30
2023-08-05T04:22:26.506Z,14.31
2023-08-05T04:24:54.322Z,14.31
2023-08-05T04:27:23.117Z,14.28
2023-08-05T04:29:50.216Z,14.27
2023-08-05T04:32:17.058Z,14.24
2023-08-05T04:34:45.952Z,14.25
2023-08-05T04:37:30.596Z,14.31
2023-08-05T04:39:57.092Z,14.36
2023-08-05T04:42:23.888Z,14.39
2023-08-05T04:44:50.371Z,14.35
2023-08-05T04:47:16.915Z,14.32
2023-08-05T04:49:44.686Z,14.38
2023-08-05T04:52:13.235Z,14.44
2023-08-05T04:54:47.297Z,14.40
2023-08-05T04:57:14.180Z,14.42
2023-08-05T04:59:43.602Z,14.37
2023-08-05T05:02:10.239Z,14.35
2023-08-05T05:04:36.746Z,14.29
2023-08-05T05:07:09.246Z,14.24
2023-08-05T05:09:35.982Z,14.28
2023-08-05T05:12:03.037Z,14.30
2023-08-05T05:14:32.806Z,14.24
2023-08-05T05:16:59.674Z,14.29
2023-08-05T05:19:26.179Z,14.37
2023-08-05T05:21:55.665Z,14.32
2023-08-05T05:24:22.687Z,14.27
2023-08-05T05:26:49.529Z,14.28
2023-08-05T05:29:16.128Z,14.31
2023-08-05T05:31:42.666Z,14.33
2023-08-05T05:34:09.201Z,14.37
2023-08-05T05:36:35.829Z,14.42
2023-08-05T05:39:02.331Z,14.39
2023-08-05T05:41:29.060Z,14.43
2023-08-05T05:43:57.224Z,14.42
2023-08-05T05:46:24.119Z,14.44
2023-08-05T05:48:50.754Z,14.47
2023-08-05T05:51:17.479Z,14.46
2023-08-05T05:53:52.060Z,14.45
2023-08-05T05:56:24.587Z,14.47
2023-08-05T05:58:52.081Z,14.46
2023-08-05T06:01:18.644Z,14.51
2023-08-05T06:03:45.514Z,14.58
2023-08-05T06:06:12.307Z,14.53
2023-08-05T06:08:38.745Z,14.49
2023-08-05T06:11:05.356Z,14.46
2023-08-05T06:13:32.270Z,14.48
2023-08-05T06:15:58.891Z,14.53
2023-08-05T06:18:25.628Z,14.54
2023-08-05T06:20:52.169Z,14.57
2023-08-05T06:23:18.822Z,14.57
2023-08-05T06:25:47.020Z,14.59
2023-08-05T06:28:13.916Z,14.59
2023-08-05T06:30:47.255Z,14.68
2023-08-05T06:33:14.719Z,14.73
2023-08-05T06:35:41.828Z,14.72
2023-08-05T06:38:08.609Z,14.72
2023-08-05T06:40:35.141Z,14.81
2023-08-05T06:43:01.851Z,14.84
2023-08-05T06:45:28.446Z,14.89
2023-08-05T06:47:55.005Z,14.92
2023-08-05T06:50:21.499Z,14.89
2023-08-05T06:52:48.008Z,14.91
2023-08-05T06:55:18.283Z,14.93
2023-08-05T06:57:50.075Z,14.92
2023-08-05T07:00:18.023Z,14.93
2023-08-05T07:02:44.625Z,15.01
2023-08-05T07:05:11.342Z,15.02
2023-08-05T07:07:38.266Z,14.98
2023-08-05T07:10:09.132Z,14.98
2023-08-05T07:12:36.201Z,15.02
2023-08-05T07:15:03.839Z,15.09
2023-08-05T07:17:30.626Z,15.15
2023-08-05T07:19:57.072Z,15.21
2023-08-05T07:22:23.591Z,15.27
2023-08-05T07:24:50.265Z,15.34
2023-08-05T07:27:16.804Z,15.42
2023-08-05T07:29:43.927Z,15.47
2023-08-05T07:32:10.643Z,15.53
2023-08-05T07:34:37.180Z,15.60
2023-08-05T07:37:03.816Z,15.69
2023-08-05T07:39:34.818Z,15.70
2023-08-05T07:42:03.698Z,15.62
2023-08-05T07:44:32.440Z,15.65
2023-08-05T07:47:02.241Z,15.66
2023-08-05T07:49:28.838Z,15.75
2023-08-05T07:51:55.395Z,15.90
2023-08-05T07:54:22.901Z,15.93
2023-08-05T07:56:49.931Z,16.04
2023-08-05T07:59:18.488Z,16.16
2023-08-05T08:01:47.248Z,16.27
2023-08-05T08:04:17.202Z,16.24
2023-08-05T08:06:47.606Z,16.20
2023-08-05T08:09:19.070Z,16.21
2023-08-05T08:11:50.316Z,16.26
2023-08-05T08:14:17.207Z,16.40
2023-08-05T08:17:44.393Z,16.45
2023-08-05T08:19:53.989Z,16.52
2023-08-05T08:22:49.377Z,16.49
2023-08-05T08:25:15.950Z,16.48
2023-08-05T08:27:56.607Z,16.47
2023-08-05T08:30:22.994Z,16.56
2023-08-05T08:32:49.677Z,16.79
2023-08-05T08:35:19.800Z,16.93
2023-08-05T08:40:52.742Z,17.08
2023-08-05T08:43:20.929Z,17.11
2023-08-05T08:46:00.455Z,17.20
2023-08-05T08:48:29.184Z,17.25
2023-08-05T08:50:56.911Z,17.15
2023-08-05T08:56:10.544Z,17.17
2023-08-05T08:58:43.278Z,17.22
2023-08-05T09:01:13.079Z,17.25
2023-08-05T09:03:43.067Z,17.33
2023-08-05T09:06:09.853Z,17.42
2023-08-05T09:08:38.428Z,17.54
2023-08-05T09:11:05.457Z,17.67
2023-08-05T09:13:32.202Z,17.84
2023-08-05T09:15:58.873Z,17.95
2023-08-05T09:18:25.319Z,18.13
2023-08-05T09:20:51.889Z,18.16
2023-08-05T09:23:18.401Z,18.13
2023-08-05T09:25:49.293Z,18.23
2023-08-05T09:28:29.784Z,18.08
2023-08-05T09:31:12.913Z,17.89
2023-08-05T09:33:41.444Z,17.76
2023-08-05T09:36:12.525Z,17.69
2023-08-05T09:38:42.934Z,17.74
2023-08-05T09:41:09.666Z,17.87
2023-08-05T09:43:40.867Z,17.94
2023-08-05T09:46:12.882Z,18.03
2023-08-05T09:48:43.633Z,18.11
2023-08-05T09:51:17.070Z,18.19
2023-08-05T09:53:44.522Z,18.12
2023-08-05T09:56:13.804Z,18.06
2023-08-05T09:58:40.493Z,18.06
2023-08-05T10:01:18.051Z,18.06
2023-08-05T10:03:45.151Z,18.21
2023-08-05T10:06:12.910Z,18.32
2023-08-05T10:08:41.658Z,18.33
2023-08-05T10:11:09.095Z,18.41
2023-08-05T10:13:42.538Z,18.53
2023-08-05T10:16:10.739Z,18.55
2023-08-05T10:18:39.646Z,18.60
2023-08-05T10:21:08.834Z,18.53
2023-08-05T10:23:36.709Z,18.54
2023-08-05T10:26:04.401Z,18.51
2023-08-05T10:28:37.358Z,18.54
2023-08-05T10:31:05.442Z,18.53
2023-08-05T10:33:31.956Z,18.65
2023-08-05T10:36:07.446Z,18.71
2023-08-05T10:38:43.653Z,18.72
2023-08-05T10:41:11.545Z,18.65
2023-08-05T10:43:42.832Z,18.71
2023-08-05T10:46:09.344Z,18.75
2023-08-05T10:48:45.789Z,18.82
2023-08-05T10:51:13.399Z,18.77
2023-08-05T10:53:43.748Z,18.80
2023-08-05T10:56:14.507Z,18.75
2023-08-05T10:58:51.032Z,18.76
2023-08-05T11:01:18.747Z,18.68
2023-08-05T11:03:53.449Z,18.68
2023-08-05T11:06:25.748Z,18.67
2023-08-05T11:08:53.320Z,18.68
2023-08-05T11:11:20.444Z,18.65
2023-08-05T11:13:49.083Z,18.58
2023-08-05T11:16:17.930Z,18.50
2023-08-05T11:18:56.806Z,18.25
2023-08-05T11:21:24.110Z,17.84
2023-08-05T11:23:50.791Z,17.38
2023-08-05T11:26:23.641Z,17.11
2023-08-05T11:28:50.417Z,17.06
2023-08-05T11:31:24.696Z,16.99
2023-08-05T11:33:52.703Z,16.94
2023-08-05T11:36:29.705Z,16.95
2023-08-05T11:39:01.689Z,16.91
2023-08-05T11:41:29.328Z,16.89
2023-08-05T11:43:56.686Z,16.91
2023-08-05T11:46:26.985Z,16.91
2023-08-05T11:49:14.298Z,16.90
2023-08-05T11:51:54.571Z,16.91
2023-08-05T11:54:25.153Z,16.95
2023-08-05T11:56:51.610Z,16.95
2023-08-05T11:59:18.100Z,16.99
2023-08-05T12:01:44.849Z,17.00
2023-08-05T12:04:12.454Z,17.00
2023-08-05T12:06:38.887Z,17.03
2023-08-05T12:09:06.138Z,17.04
2023-08-05T12:11:45.449Z,17.00
2023-08-05T12:14:13.425Z,17.01
2023-08-05T12:16:39.931Z,16.98
2023-08-05T12:19:06.856Z,16.97
2023-08-05T12:23:59.990Z,16.96
2023-08-05T12:26:28.068Z,16.94
2023-08-05T12:28:54.656Z,16.89
2023-08-05T12:31:21.445Z,16.84
2023-08-05T12:33:48.038Z,16.83
2023-08-05T12:36:14.699Z,16.77
2023-08-05T12:38:41.245Z,16.70
2023-08-05T12:41:07.702Z,16.61
2023-08-05T12:43:34.231Z,16.56
2023-08-05T12:46:01.011Z,16.56
2023-08-05T12:48:27.974Z,16.54
2023-08-05T12:50:54.614Z,16.46
2023-08-05T12:53:21.170Z,16.41
2023-08-05T12:55:47.765Z,16.37
2023-08-05T12:58:14.402Z,16.27
2023-08-05T13:00:41.105Z,16.22
2023-08-05T13:03:07.718Z,16.16
2023-08-05T13:05:34.256Z,16.10
2023-08-05T13:08:00.669Z,16.07
2023-08-05T13:10:27.278Z,16.01
2023-08-05T13:12:53.780Z,15.90
2023-08-05T13:15:20.450Z,15.79
2023-08-05T13:17:46.955Z,15.67
2023-08-05T13:20:13.618Z,15.59
2023-08-05T13:22:40.287Z,15.55
2023-08-05T13:25:06.954Z,15.52
2023-08-05T13:27:34.432Z,15.51
2023-08-05T13:30:00.887Z,15.45
2023-08-05T13:32:27.519Z,15.32
2023-08-05T13:34:54.096Z,15.29
2023-08-05T13:37:20.703Z,15.36
2023-08-05T13:39:51.240Z,15.35
2023-08-05T13:42:17.873Z,15.34
2023-08-05T13:44:44.310Z,15.35
2023-08-05T13:47:10.889Z,15.44
2023-08-05T13:49:37.569Z,15.45
2023-08-05T13:52:04.478Z,15.49
2023-08-05T13:54:30.989Z,15.53
2023-08-05T13:56:57.636Z,15.58
2023-08-05T13:59:24.116Z,15.60
2023-08-05T14:01:50.981Z,15.58
2023-08-05T14:04:18.689Z,15.57
2023-08-05T14:06:45.298Z,15.61
2023-08-05T14:09:11.834Z,15.64
2023-08-05T14:11:38.756Z,15.60
2023-08-05T14:14:05.320Z,15.56
2023-08-05T14:16:36.528Z,15.55
2023-08-05T14:19:03.307Z,15.61
2023-08-05T14:21:31.976Z,15.58
2023-08-05T14:23:58.462Z,15.58
2023-08-05T14:26:25.076Z,15.59
2023-08-05T14:28:51.743Z,15.60
2023-08-05T14:31:18.321Z,15.62
2023-08-05T14:33:44.997Z,15.69
2023-08-05T14:36:13.204Z,15.71
2023-08-05T14:38:40.026Z,15.74
2023-08-05T14:41:08.416Z,15.72
2023-08-05T14:43:34.945Z,15.72
2023-08-05T14:46:05.072Z,15.71
2023-08-05T14:48:31.735Z,15.76
2023-08-05T14:51:02.471Z,15.76
2023-08-05T14:53:29.486Z,15.69
2023-08-05T14:56:00.338Z,15.60
2023-08-05T14:58:26.963Z,15.52
2023-08-05T15:00:53.440Z,15.49
2023-08-05T15:03:20.100Z,15.45
2023-08-05T15:05:46.789Z,15.41
2023-08-05T15:08:13.362Z,15.36
2023-08-05T15:10:39.830Z,15.37
2023-08-05T15:13:06.437Z,15.40
2023-08-05T15:15:32.866Z,15.35
2023-08-05T15:17:59.560Z,15.29
2023-08-05T15:20:26.171Z,15.31
2023-08-05T15:22:52.771Z,15.26
2023-08-05T15:25:19.294Z,15.26
2023-08-05T15:27:45.811Z,15.21
2023-08-05T15:30:12.480Z,15.21
2023-08-05T15:32:39.372Z,15.25
2023-08-05T15:35:08.184Z,15.23
2023-08-05T15:37:34.763Z,15.26
2023-08-05T15:40:01.250Z,15.36
2023-08-05T15:42:27.915Z,15.46
2023-08-05T15:44:54.377Z,15.57
2023-08-05T15:47:20.970Z,15.70
2023-08-05T15:49:47.534Z,15.79
2023-08-05T15:52:14.270Z,15.84
2023-08-05T15:54:43.009Z,15.89
2023-08-05T15:57:11.510Z,15.96
2023-08-05T15:59:38.048Z,15.93
2023-08-05T16:02:04.892Z,15.88
2023-08-05T16:04:37.963Z,15.89
2023-08-05T16:07:06.154Z,15.93
2023-08-05T16:09:32.768Z,15.96
2023-08-05T16:11:59.191Z,15.95
2023-08-05T16:14:25.643Z,15.92
2023-08-05T16:16:52.098Z,15.92
2023-08-05T16:19:20.880Z,15.89
2023-08-05T16:21:48.703Z,15.89
2023-08-05T16:24:15.302Z,15.91
2023-08-05T16:26:43.418Z,15.89
2023-08-05T16:29:10.152Z,15.87
2023-08-05T16:31:36.702Z,15.83
2023-08-05T16:34:03.331Z,15.94
2023-08-05T16:36:29.929Z,15.94
2023-08-05T16:38:56.700Z,16.02
2023-08-05T16:41:23.273Z,16.19
2023-08-05T16:43:50.112Z,16.20
2023-08-05T16:46:17.965Z,16.08
2023-08-05T16:48:44.477Z,16.03
2023-08-05T16:51:11.067Z,16.00
2023-08-05T16:53:37.643Z,16.00
2023-08-05T16:56:05.324Z,15.99
2023-08-05T16:58:32.358Z,16.00
2023-08-05T17:00:59.479Z,15.99
2023-08-05T17:03:26.160Z,15.99
2023-08-05T17:05:53.695Z,16.00
2023-08-05T17:08:21.165Z,15.95
2023-08-05T17:10:47.884Z,15.92
2023-08-05T17:13:14.492Z,15.93
2023-08-05T17:15:48.707Z,15.94
2023-08-05T17:18:15.942Z,15.94
2023-08-05T17:20:42.963Z,15.96
2023-08-05T17:23:09.851Z,15.87
2023-08-05T17:25:41.203Z,15.92
2023-08-05T17:28:08.371Z,15.91
2023-08-05T17:30:37.948Z,15.86
2023-08-05T17:33:05.263Z,15.85
2023-08-05T17:35:33.047Z,15.91
2023-08-05T17:38:04.306Z,15.98
2023-08-05T17:40:39.264Z,15.93
2023-08-05T17:43:05.870Z,15.91
2023-08-05T17:45:32.877Z,15.86
2023-08-05T17:47:59.474Z,15.86
2023-08-05T17:50:26.427Z,15.76
2023-08-05T17:52:53.795Z,15.74
2023-08-05T17:55:20.311Z,15.67
2023-08-05T17:57:49.122Z,15.67
2023-08-05T18:00:16.156Z,15.61
2023-08-05T18:02:42.810Z,15.61
2023-08-05T18:05:09.559Z,15.58
2023-08-05T18:07:36.065Z,15.58
2023-08-05T18:10:05.765Z,15.56
2023-08-05T18:12:38.215Z,15.51
2023-08-05T18:15:05.244Z,15.53
2023-08-05T18:17:31.690Z,15.53
2023-08-05T18:20:04.338Z,15.48
2023-08-05T18:22:36.612Z,15.56
2023-08-05T18:25:08.721Z,15.53
2023-08-05T18:27:36.249Z,15.52
2023-08-05T18:30:02.853Z,15.49
2023-08-05T18:32:29.486Z,15.51
2023-08-05T18:34:55.980Z,15.59
2023-08-05T18:37:22.710Z,15.54
2023-08-05T18:39:49.398Z,15.50
2023-08-05T18:42:16.011Z,15.42
2023-08-05T18:44:42.747Z,15.40
2023-08-05T18:47:11.592Z,15.28
2023-08-05T18:49:38.086Z,15.25
2023-08-05T18:52:05.144Z,15.29
2023-08-05T18:54:42.877Z,15.29
2023-08-05T18:57:11.795Z,15.34
2023-08-05T18:59:45.649Z,15.31
2023-08-05T19:02:12.228Z,15.26
2023-08-05T19:04:38.711Z,15.28
2023-08-05T19:07:13.122Z,15.26
2023-08-05T19:09:45.552Z,15.29
2023-08-05T19:12:12.567Z,15.29
2023-08-05T19:14:39.665Z,15.21
2023-08-05T19:17:13.500Z,15.18
2023-08-05T19:19:40.271Z,15.25
2023-08-05T19:22:07.709Z,15.22
2023-08-05T19:24:40.584Z,15.18
2023-08-05T19:27:08.622Z,15.19
2023-08-05T19:29:35.102Z,15.17
2023-08-05T19:32:01.618Z,15.13
2023-08-05T19:34:34.017Z,15.11
2023-08-05T19:37:01.778Z,15.16
2023-08-05T19:39:36.703Z,15.10
2023-08-05T19:42:03.621Z,15.08
2023-08-05T19:44:31.571Z,15.03
2023-08-05T19:46:58.227Z,15.04
2023-08-05T19:49:25.143Z,15.03
2023-08-05T19:51:54.839Z,15.05
2023-08-05T19:54:21.374Z,15.03
2023-08-05T19:56:47.893Z,14.97
2023-08-05T19:59:14.444Z,14.95
2023-08-05T20:01:41.146Z,14.93
2023-08-05T20:04:10.861Z,14.93
2023-08-05T20:06:37.341Z,14.96
2023-08-05T20:09:04.056Z,14.93
2023-08-05T20:11:30.591Z,14.97
2023-08-05T20:13:57.354Z,14.94
2023-08-05T20:16:30.209Z,14.93
2023-08-05T20:18:56.662Z,14.95
2023-08-05T20:21:29.578Z,14.89
2023-08-05T20:23:59.473Z,14.88
2023-08-05T20:26:26.045Z,14.90
2023-08-05T20:28:54.770Z,14.91
2023-08-05T20:31:21.669Z,14.94
2023-08-05T20:33:48.203Z,14.94
2023-08-05T20:36:14.834Z,14.97
2023-08-05T20:38:41.493Z,14.94
2023-08-05T20:41:08.004Z,14.91
2023-08-05T20:43:34.534Z,14.90
2023-08-05T20:46:03.612Z,14.88
2023-08-05T20:48:30.228Z,14.87
2023-08-05T20:50:57.527Z,14.87
2023-08-05T20:53:24.090Z,14.90
2023-08-05T20:55:51.895Z,14.90
2023-08-05T20:58:27.100Z,14.93
2023-08-05T21:00:57.980Z,14.91
2023-08-05T21:06:05.415Z,14.96
2023-08-05T21:08:32.319Z,14.94
2023-08-05T21:11:02.699Z,14.92
2023-08-05T21:13:39.704Z,14.95
2023-08-05T21:16:07.766Z,14.96
2023-08-05T21:18:38.324Z,14.92
2023-08-05T21:21:05.041Z,14.92
2023-08-05T21:23:33.876Z,14.91
2023-08-05T21:26:09.016Z,14.87
2023-08-05T21:28:35.548Z,14.85
2023-08-05T21:31:09.263Z,14.87
2023-08-05T21:33:36.362Z,14.85
2023-08-05T21:36:03.814Z,14.82
2023-08-05T21:38:30.550Z,14.84
2023-08-05T21:41:07.158Z,14.83
2023-08-05T21:43:33.874Z,14.81
2023-08-05T21:46:00.869Z,14.85
2023-08-05T21:48:37.484Z,14.85
2023-08-05T21:51:04.430Z,14.81
2023-08-05T21:53:34.156Z,14.85
2023-08-05T21:56:06.567Z,14.88
2023-08-05T21:58:38.136Z,14.86
2023-08-05T22:03:48.812Z,14.88
2023-08-05T22:06:15.696Z,14.89
2023-08-05T22:08:42.307Z,14.85
2023-08-05T22:11:12.915Z,14.87
2023-08-05T22:13:41.509Z,14.89
2023-08-05T22:16:08.927Z,14.90
2023-08-05T22:18:35.713Z,14.90
2023-08-05T22:21:02.665Z,14.92
2023-08-05T22:23:31.582Z,14.92
2023-08-05T22:26:02.832Z,14.91
2023-08-05T22:28:29.549Z,14.91
2023-08-05T22:30:58.068Z,14.91
2023-08-05T22:33:24.980Z,14.89
2023-08-05T22:35:53.877Z,14.90
2023-08-05T22:38:20.518Z,14.89
2023-08-05T22:40:47.118Z,14.89
2023-08-05T22:43:13.773Z,14.91
2023-08-05T22:45:40.561Z,14.91
2023-08-05T22:48:10.385Z,14.91
2023-08-05T22:50:41.400Z,14.93
2023-08-05T22:53:08.121Z,14.90
2023-08-05T22:55:36.688Z,14.87
2023-08-05T22:58:03.461Z,14.85
2023-08-05T23:00:29.946Z,14.84
2023-08-05T23:02:56.901Z,14.83
2023-08-05T23:05:23.532Z,14.80
2023-08-05T23:07:50.058Z,14.79
2023-08-05T23:10:16.719Z,14.79
2023-08-05T23:12:43.374Z,14.80
2023-08-05T23:15:10.457Z,14.78
2023-08-05T23:17:37.006Z,14.80
2023-08-05T23:20:05.501Z,14.81
2023-08-05T23:22:32.051Z,14.79
2023-08-05T23:24:58.683Z,14.77
2023-08-05T23:27:25.282Z,14.78
2023-08-05T23:29:52.498Z,14.76
2023-08-05T23:32:18.955Z,14.75
2023-08-05T23:34:45.427Z,14.75
2023-08-05T23:37:12.147Z,14.78
2023-08-05T23:39:38.769Z,14.75
2023-08-05T23:42:05.465Z,14.76
2023-08-05T23:44:32.117Z,14.72
2023-08-05T23:46:58.909Z,14.69
2023-08-05T23:49:25.673Z,14.72
2023-08-05T23:51:52.615Z,14.73
2023-08-05T23:54:19.326Z,14.72
2023-08-05T23:56:45.992Z,14.74
2023-08-05T23:59:12.497Z,14.72
